createdAt,value
2023-03-08T00:02:15.325Z,96979.20
2023-03-08T00:04:41.773Z,96971.80
2023-03-08T00:07:08.253Z,96975.20
2023-03-08T00:09:36.908Z,96978.20
2023-03-08T00:12:03.543Z,96984.00
2023-03-08T00:14:29.949Z,96985.40
2023-03-08T00:16:56.683Z,96984.20
2023-03-08T00:19:23.083Z,96989.00
2023-03-08T00:21:49.491Z,96983.00
2023-03-08T00:24:16.815Z,96985.20
2023-03-08T00:26:43.820Z,96984.20
2023-03-08T00:29:10.209Z,96978.80
2023-03-08T00:31:36.900Z,96979.00
2023-03-08T00:34:04.108Z,96978.20
2023-03-08T00:36:30.668Z,96988.00
2023-03-08T00:38:57.292Z,96984.60
2023-03-08T00:41:23.853Z,96984.00
2023-03-08T00:43:51.007Z,96981.00
2023-03-08T00:46:17.682Z,96982.80
2023-03-08T00:48:44.179Z,96977.20
2023-03-08T00:51:15.218Z,96979.00
2023-03-08T00:53:42.130Z,96978.40
2023-03-08T00:56:08.631Z,96984.80
2023-03-08T00:58:39.441Z,96987.80
2023-03-08T01:01:08.254Z,96988.40
2023-03-08T01:03:35.272Z,96988.60
2023-03-08T01:06:10.496Z,96986.60
2023-03-08T01:08:38.335Z,96981.20
2023-03-08T01:11:05.295Z,96980.80
2023-03-08T01:13:35.955Z,96985.40
2023-03-08T01:16:03.054Z,96986.80
2023-03-08T01:18:29.528Z,96982.80
2023-03-08T01:21:02.998Z,96991.20
2023-03-08T01:23:31.343Z,96990.80
2023-03-08T01:26:03.461Z,97002.00
2023-03-08T01:28:30.720Z,97001.80
2023-03-08T01:31:22.687Z,97004.60
2023-03-08T01:33:49.584Z,97005.20
2023-03-08T01:36:21.508Z,97006.00
2023-03-08T01:38:49.008Z,97003.00
2023-03-08T01:41:24.407Z,97005.20
2023-03-08T01:43:51.956Z,97005.80
2023-03-08T01:46:33.189Z,97007.00
2023-03-08T01:49:20.535Z,96999.40
2023-03-08T01:52:04.673Z,97005.00
2023-03-08T01:54:43.875Z,97003.60
2023-03-08T01:57:34.826Z,97001.00
2023-03-08T02:00:16.591Z,97000.40
2023-03-08T02:02:58.287Z,97004.00
2023-03-08T02:05:26.251Z,97000.20
2023-03-08T02:07:52.737Z,97004.60
2023-03-08T02:13:39.964Z,97011.80
2023-03-08T02:16:12.132Z,97013.20
2023-03-08T02:18:54.191Z,97010.80
2023-03-08T02:21:21.589Z,97010.40
2023-03-08T02:23:48.020Z,97013.00
2023-03-08T02:26:14.942Z,97014.80
2023-03-08T02:28:41.976Z,97009.20
2023-03-08T02:31:08.629Z,97012.40
2023-03-08T02:33:35.179Z,97014.80
2023-03-08T02:36:05.040Z,97016.40
2023-03-08T02:38:31.601Z,97017.60
2023-03-08T02:40:58.027Z,97014.40
2023-03-08T02:43:24.992Z,97018.40
2023-03-08T02:45:51.602Z,97023.60
2023-03-08T02:48:19.045Z,97023.00
2023-03-08T02:50:45.563Z,97036.40
2023-03-08T02:53:12.132Z,97041.60
2023-03-08T02:55:39.852Z,97046.00
2023-03-08T02:58:09.487Z,97046.40
2023-03-08T03:00:36.979Z,97054.20
2023-03-08T03:03:03.516Z,97065.20
2023-03-08T03:05:30.038Z,97070.40
2023-03-08T03:07:58.591Z,97070.60
2023-03-08T03:10:25.537Z,97073.00
2023-03-08T03:12:52.142Z,97079.20
2023-03-08T03:15:18.771Z,97075.00
2023-03-08T03:17:45.201Z,97076.20
2023-03-08T03:20:12.392Z,97078.80
2023-03-08T03:22:38.876Z,97084.20
2023-03-08T03:25:06.229Z,97086.20
2023-03-08T03:27:32.666Z,97087.00
2023-03-08T03:29:59.163Z,97080.60
2023-03-08T03:32:25.643Z,97092.40
2023-03-08T03:34:52.634Z,97094.60
2023-03-08T03:37:19.167Z,97103.60
2023-03-08T03:39:45.611Z,97109.00
2023-03-08T03:42:12.010Z,97111.80
2023-03-08T03:44:38.497Z,97113.60
2023-03-08T03:47:05.934Z,97117.60
2023-03-08T03:49:32.810Z,97115.20
2023-03-08T03:51:59.560Z,97118.60
2023-03-08T03:54:26.743Z,97120.60
2023-03-08T03:56:55.459Z,97125.20
2023-03-08T03:59:21.825Z,97124.40
2023-03-08T04:01:48.280Z,97123.20
2023-03-08T04:04:14.651Z,97124.00
2023-03-08T04:06:41.109Z,97118.00
2023-03-08T04:09:15.725Z,97114.80
2023-03-08T04:11:42.449Z,97120.40
2023-03-08T04:14:10.039Z,97122.60
2023-03-08T04:16:39.085Z,97125.00
2023-03-08T04:19:11.531Z,97128.00
2023-03-08T04:21:38.088Z,97129.40
2023-03-08T04:24:05.300Z,97130.40
2023-03-08T04:26:32.005Z,97125.60
2023-03-08T04:28:58.504Z,97129.40
2023-03-08T04:31:29.210Z,97129.60
2023-03-08T04:33:58.177Z,97135.40
2023-03-08T04:36:25.049Z,97141.40
2023-03-08T04:38:52.199Z,97154.40
2023-03-08T04:41:19.478Z,97153.20
2023-03-08T04:43:53.040Z,97158.40
2023-03-08T04:46:24.235Z,97156.40
2023-03-08T04:48:55.574Z,97148.20
2023-03-08T04:51:26.082Z,97153.40
2023-03-08T04:53:52.966Z,97148.40
2023-03-08T04:56:19.798Z,97149.80
2023-03-08T04:58:46.753Z,97156.80
2023-03-08T05:01:17.222Z,97158.00
2023-03-08T05:03:45.767Z,97158.40
2023-03-08T05:06:16.293Z,97166.80
2023-03-08T05:08:42.983Z,97168.00
2023-03-08T05:11:10.615Z,97168.00
2023-03-08T05:13:39.095Z,97170.20
2023-03-08T05:16:08.132Z,97177.60
2023-03-08T05:18:35.160Z,97184.20
2023-03-08T05:21:05.994Z,97186.40
2023-03-08T05:23:33.542Z,97184.00
2023-03-08T05:26:03.554Z,97189.40
2023-03-08T05:28:33.910Z,97192.40
2023-03-08T05:31:21.865Z,97190.00
2023-03-08T05:33:51.594Z,97193.80
2023-03-08T05:36:19.159Z,97196.40
2023-03-08T05:38:45.941Z,97195.20
2023-03-08T05:41:16.403Z,97200.20
2023-03-08T05:43:43.560Z,97215.20
2023-03-08T05:46:19.184Z,97215.40
2023-03-08T05:48:45.763Z,97216.40
2023-03-08T05:51:16.647Z,97219.60
2023-03-08T05:53:43.360Z,97221.80
2023-03-08T05:56:16.490Z,97227.60
2023-03-08T05:58:46.724Z,97231.00
2023-03-08T06:01:23.754Z,97234.40
2023-03-08T06:03:53.499Z,97243.00
2023-03-08T06:06:25.938Z,97241.20
2023-03-08T06:08:53.927Z,97244.40
2023-03-08T06:11:20.724Z,97251.40
2023-03-08T06:13:47.297Z,97254.00
2023-03-08T06:16:14.472Z,97257.00
2023-03-08T06:18:42.687Z,97262.20
2023-03-08T06:21:14.441Z,97266.40
2023-03-08T06:23:43.060Z,97268.20
2023-03-08T06:26:11.259Z,97282.80
2023-03-08T06:28:40.299Z,97276.80
2023-03-08T06:31:08.703Z,97278.40
2023-03-08T06:33:35.489Z,97281.60
2023-03-08T06:36:10.607Z,97284.40
2023-03-08T06:38:40.401Z,97285.00
2023-03-08T06:41:09.648Z,97290.00
2023-03-08T06:43:36.744Z,97292.20
2023-03-08T06:46:09.011Z,97300.60
2023-03-08T06:48:36.528Z,97303.60
2023-03-08T06:51:04.903Z,97307.60
2023-03-08T06:53:33.616Z,97310.20
2023-03-08T06:56:03.021Z,97307.40
2023-03-08T06:58:29.877Z,97313.20
2023-03-08T07:00:56.332Z,97314.60
2023-03-08T07:03:23.188Z,97310.80
2023-03-08T07:05:49.595Z,97313.40
2023-03-08T07:08:17.016Z,97310.80
2023-03-08T07:10:43.494Z,97310.80
2023-03-08T07:13:09.976Z,97316.20
2023-03-08T07:15:40.527Z,97318.20
2023-03-08T07:18:06.986Z,97317.00
2023-03-08T07:20:34.401Z,97325.80
2023-03-08T07:23:01.980Z,97324.20
2023-03-08T07:25:28.787Z,97327.40
2023-03-08T07:27:55.247Z,97329.00
2023-03-08T07:30:21.766Z,97331.80
2023-03-08T07:32:48.322Z,97328.20
2023-03-08T07:35:17.089Z,97336.40
2023-03-08T07:37:47.898Z,97329.20
2023-03-08T07:40:17.473Z,97335.20
2023-03-08T07:42:44.862Z,97346.60
2023-03-08T07:45:13.112Z,97352.80
2023-03-08T07:47:41.645Z,97357.00
2023-03-08T07:50:09.631Z,97359.60
2023-03-08T07:52:36.145Z,97358.20
2023-03-08T07:55:02.861Z,97356.20
2023-03-08T07:57:29.344Z,97361.20
2023-03-08T07:59:55.861Z,97355.80
2023-03-08T08:02:23.116Z,97366.00
2023-03-08T08:04:50.633Z,97366.20
2023-03-08T08:07:17.770Z,97366.00
2023-03-08T08:09:44.232Z,97371.00
2023-03-08T08:12:10.900Z,97381.00
2023-03-08T08:14:40.209Z,97383.00
2023-03-08T08:17:06.667Z,97381.40
2023-03-08T08:19:33.637Z,97382.20
2023-03-08T08:22:00.551Z,97380.00
2023-03-08T08:24:27.963Z,97387.40
2023-03-08T08:26:54.810Z,97383.40
2023-03-08T08:29:22.402Z,97376.40
2023-03-08T08:31:48.942Z,97379.80
2023-03-08T08:34:15.414Z,97383.40
2023-03-08T08:36:41.913Z,97388.80
2023-03-08T08:39:08.409Z,97393.60
2023-03-08T08:41:34.830Z,97392.80
2023-03-08T08:44:02.336Z,97394.40
2023-03-08T08:46:30.867Z,97397.80
2023-03-08T08:48:58.625Z,97396.80
2023-03-08T08:51:25.873Z,97403.80
2023-03-08T08:53:52.677Z,97392.60
2023-03-08T08:56:27.698Z,97398.40
2023-03-08T08:58:57.865Z,97395.60
2023-03-08T09:01:28.849Z,97396.00
2023-03-08T09:03:55.699Z,97388.40
2023-03-08T09:06:25.837Z,97397.20
2023-03-08T09:08:55.312Z,97395.60
2023-03-08T09:11:24.209Z,97393.00
2023-03-08T09:13:51.013Z,97382.00
2023-03-08T09:16:36.588Z,97389.20
2023-03-08T09:19:05.281Z,97380.60
2023-03-08T09:21:33.807Z,97390.20
2023-03-08T09:24:04.772Z,97390.20
2023-03-08T09:26:33.332Z,97389.60
2023-03-08T09:29:10.374Z,97391.40
2023-03-08T09:31:38.679Z,97390.20
2023-03-08T09:34:08.903Z,97398.60
2023-03-08T09:36:39.532Z,97399.20
2023-03-08T09:39:12.249Z,97400.00
2023-03-08T09:41:44.713Z,97395.20
2023-03-08T09:44:45.802Z,97400.00
2023-03-08T09:47:39.576Z,97403.20
2023-03-08T09:50:15.901Z,97403.40
2023-03-08T09:52:54.530Z,97407.40
2023-03-08T09:55:30.810Z,97403.20
2023-03-08T09:58:11.863Z,97409.60
2023-03-08T10:00:39.033Z,97403.40
2023-03-08T10:03:36.447Z,97408.00
2023-03-08T10:06:26.992Z,97405.00
2023-03-08T10:09:23.559Z,97400.40
2023-03-08T10:12:01.203Z,97402.40
2023-03-08T10:14:34.851Z,97401.40
2023-03-08T10:17:14.555Z,97394.80
2023-03-08T10:19:51.513Z,97396.00
2023-03-08T10:22:34.674Z,97396.00
2023-03-08T10:25:17.875Z,97399.40
2023-03-08T10:27:48.340Z,97399.20
2023-03-08T10:30:19.654Z,97398.40
2023-03-08T10:32:54.377Z,97402.40
2023-03-08T10:35:50.148Z,97399.80
2023-03-08T10:38:17.635Z,97389.00
2023-03-08T10:40:44.344Z,97393.60
2023-03-08T10:43:28.359Z,97389.40
2023-03-08T10:46:11.918Z,97382.40
2023-03-08T10:48:38.442Z,97374.40
2023-03-08T10:51:17.868Z,97367.20
2023-03-08T10:54:07.223Z,97370.20
2023-03-08T10:56:46.262Z,97377.60
2023-03-08T10:59:28.211Z,97380.80
2023-03-08T11:02:13.222Z,97374.00
2023-03-08T11:04:56.083Z,97362.60
2023-03-08T11:07:27.806Z,97370.20
2023-03-08T11:10:19.639Z,97363.00
2023-03-08T11:12:46.790Z,97369.00
2023-03-08T11:15:19.643Z,97366.00
2023-03-08T11:18:06.746Z,97352.80
2023-03-08T11:20:51.702Z,97346.80
2023-03-08T11:23:40.177Z,97343.20
2023-03-08T11:26:22.454Z,97350.40
2023-03-08T11:29:29.085Z,97342.00
2023-03-08T11:32:38.320Z,97341.00
2023-03-08T11:35:59.380Z,97332.80
2023-03-08T11:38:32.263Z,97325.40
2023-03-08T11:41:53.210Z,97327.00
2023-03-08T11:44:53.581Z,97327.40
2023-03-08T11:47:36.461Z,97319.00
2023-03-08T11:50:27.167Z,97321.40
2023-03-08T11:53:22.114Z,97326.20
2023-03-08T11:56:16.204Z,97339.40
2023-03-08T11:59:11.386Z,97342.20
2023-03-08T12:01:50.877Z,97338.00
2023-03-08T12:04:28.557Z,97334.60
2023-03-08T12:06:56.449Z,97343.20
2023-03-08T12:09:33.031Z,97343.60
2023-03-08T12:12:14.638Z,97333.60
2023-03-08T12:14:57.056Z,97329.00
2023-03-08T12:17:35.505Z,97331.00
2023-03-08T12:20:06.156Z,97325.40
2023-03-08T12:22:46.112Z,97327.60
2023-03-08T12:25:27.455Z,97325.00
2023-03-08T12:28:05.350Z,97324.00
2023-03-08T12:31:02.865Z,97324.20
2023-03-08T12:33:32.252Z,97323.60
2023-03-08T12:36:08.016Z,97322.00
2023-03-08T12:38:44.658Z,97322.20
2023-03-08T12:41:27.979Z,97322.80
2023-03-08T12:44:24.786Z,97330.80
2023-03-08T12:47:23.212Z,97328.00
2023-03-08T12:49:58.017Z,97327.60
2023-03-08T12:52:35.310Z,97325.00
2023-03-08T12:55:20.916Z,97321.20
2023-03-08T12:57:53.165Z,97316.40
2023-03-08T13:00:19.558Z,97307.40
2023-03-08T13:02:46.720Z,97301.00
2023-03-08T13:05:31.912Z,97307.20
2023-03-08T13:08:06.023Z,97298.40
2023-03-08T13:10:38.367Z,97298.80
2023-03-08T13:13:37.046Z,97295.80
2023-03-08T13:16:07.177Z,97280.40
2023-03-08T13:18:33.945Z,97281.40
2023-03-08T13:21:36.362Z,97272.80
2023-03-08T13:24:54.096Z,97272.80
2023-03-08T13:27:49.137Z,97274.80
2023-03-08T13:30:34.582Z,97275.20
2023-03-08T13:33:07.994Z,97272.40
2023-03-08T13:35:34.492Z,97267.00
2023-03-08T13:38:02.065Z,97268.20
2023-03-08T13:40:31.144Z,97266.80
2023-03-08T13:43:10.926Z,97260.00
2023-03-08T13:45:37.858Z,97263.60
2023-03-08T13:48:09.166Z,97257.40
2023-03-08T13:50:42.387Z,97256.80
2023-03-08T13:53:16.994Z,97259.00
2023-03-08T13:55:47.133Z,97260.20
2023-03-08T13:58:38.593Z,97256.40
2023-03-08T14:01:18.846Z,97255.00
2023-03-08T14:03:47.783Z,97247.40
2023-03-08T14:06:31.069Z,97240.80
2023-03-08T14:09:03.804Z,97237.00
2023-03-08T14:11:36.494Z,97233.00
2023-03-08T14:14:09.526Z,97232.40
2023-03-08T14:16:39.644Z,97231.80
2023-03-08T14:19:30.435Z,97230.00
2023-03-08T14:22:02.127Z,97228.40
2023-03-08T14:24:35.570Z,97229.40
2023-03-08T14:27:06.818Z,97228.80
2023-03-08T14:29:35.839Z,97226.80
2023-03-08T14:32:23.078Z,97229.00
2023-03-08T14:34:50.293Z,97222.40
2023-03-08T14:37:29.404Z,97220.20
2023-03-08T14:40:19.984Z,97216.00
2023-03-08T14:42:50.492Z,97211.00
2023-03-08T14:45:29.545Z,97207.40
2023-03-08T14:47:59.887Z,97211.00
2023-03-08T14:50:33.009Z,97210.60
2023-03-08T14:53:02.871Z,97204.60
2023-03-08T14:55:33.499Z,97196.80
2023-03-08T14:58:10.374Z,97191.20
2023-03-08T15:00:37.861Z,97190.80
2023-03-08T15:03:04.420Z,97186.80
2023-03-08T15:05:31.220Z,97180.60
2023-03-08T15:08:00.915Z,97182.80
2023-03-08T15:10:32.543Z,97187.00
2023-03-08T15:13:00.103Z,97186.20
2023-03-08T15:15:27.039Z,97184.40
2023-03-08T15:17:53.532Z,97186.80
2023-03-08T15:20:20.754Z,97183.80
2023-03-08T15:22:53.863Z,97180.00
2023-03-08T15:25:31.677Z,97173.20
2023-03-08T15:27:58.067Z,97174.00
2023-03-08T15:30:28.713Z,97178.40
2023-03-08T15:32:59.417Z,97171.60
2023-03-08T15:35:26.091Z,97174.40
2023-03-08T15:37:52.522Z,97172.60
2023-03-08T15:40:24.550Z,97173.80
2023-03-08T15:42:51.136Z,97167.40
2023-03-08T15:45:18.558Z,97165.60
2023-03-08T15:47:59.626Z,97162.80
2023-03-08T15:50:27.780Z,97164.20
2023-03-08T15:52:55.706Z,97164.60
2023-03-08T15:55:32.034Z,97157.40
2023-03-08T15:57:59.263Z,97153.80
2023-03-08T16:00:26.207Z,97148.80
2023-03-08T16:02:53.672Z,97153.20
2023-03-08T16:05:23.296Z,97157.00
2023-03-08T16:07:59.887Z,97145.80
2023-03-08T16:10:29.307Z,97148.60
2023-03-08T16:12:56.319Z,97149.00
2023-03-08T16:15:23.068Z,97147.40
2023-03-08T16:17:49.650Z,97146.60
2023-03-08T16:20:17.052Z,97139.40
2023-03-08T16:22:45.390Z,97137.80
2023-03-08T16:25:12.088Z,97138.80
2023-03-08T16:27:38.549Z,97140.20
2023-03-08T16:30:06.110Z,97140.40
2023-03-08T16:32:33.119Z,97140.80
2023-03-08T16:35:00.986Z,97137.00
2023-03-08T16:37:28.369Z,97133.40
2023-03-08T16:39:57.452Z,97132.20
2023-03-08T16:42:23.956Z,97129.40
2023-03-08T16:44:55.190Z,97135.00
2023-03-08T16:47:24.395Z,97135.20
2023-03-08T16:49:51.157Z,97139.80
2023-03-08T16:52:18.740Z,97141.40
2023-03-08T16:54:45.755Z,97146.20
2023-03-08T16:57:19.836Z,97153.20
2023-03-08T16:59:47.812Z,97150.60
2023-03-08T17:02:22.060Z,97145.80
2023-03-08T17:04:49.817Z,97149.20
2023-03-08T17:07:17.590Z,97144.60
2023-03-08T17:09:44.098Z,97145.20
2023-03-08T17:12:10.507Z,97139.40
2023-03-08T17:14:37.668Z,97137.20
2023-03-08T17:17:05.503Z,97137.60
2023-03-08T17:19:32.238Z,97141.60
2023-03-08T17:21:58.867Z,97137.20
2023-03-08T17:24:27.933Z,97126.00
2023-03-08T17:26:55.639Z,97124.00
2023-03-08T17:29:22.983Z,97124.80
2023-03-08T17:31:50.782Z,97122.60
2023-03-08T17:34:18.004Z,97123.20
2023-03-08T17:36:46.578Z,97125.20
2023-03-08T17:39:14.253Z,97116.60
2023-03-08T17:41:41.455Z,97118.00
2023-03-08T17:44:08.122Z,97119.40
2023-03-08T17:46:34.942Z,97115.00
2023-03-08T17:49:01.591Z,97117.20
2023-03-08T17:51:31.349Z,97111.60
2023-03-08T17:53:59.442Z,97111.80
2023-03-08T17:56:30.992Z,97113.40
2023-03-08T17:59:00.623Z,97116.60
2023-03-08T18:01:30.764Z,97113.00
2023-03-08T18:03:58.099Z,97111.20
2023-03-08T18:06:31.221Z,97106.20
2023-03-08T18:08:59.749Z,97104.40
2023-03-08T18:11:27.870Z,97107.40
2023-03-08T18:13:55.496Z,97106.20
2023-03-08T18:16:23.603Z,97098.20
2023-03-08T18:18:50.831Z,97095.00
2023-03-08T18:21:19.668Z,97091.40
2023-03-08T18:23:46.678Z,97084.20
2023-03-08T18:26:16.427Z,97075.00
2023-03-08T18:28:42.823Z,97078.40
2023-03-08T18:31:26.316Z,97070.00
2023-03-08T18:33:54.985Z,97068.20
2023-03-08T18:36:22.064Z,97063.60
2023-03-08T18:38:48.759Z,97055.00
2023-03-08T18:41:22.121Z,97055.40
2023-03-08T18:43:48.546Z,97045.40
2023-03-08T18:46:15.212Z,97038.80
2023-03-08T18:48:42.218Z,97036.00
2023-03-08T18:51:09.887Z,97035.80
2023-03-08T18:53:37.151Z,97030.20
2023-03-08T18:56:04.948Z,97030.00
2023-03-08T18:58:32.202Z,97027.80
2023-03-08T19:01:00.357Z,97016.60
2023-03-08T19:03:28.552Z,97016.00
2023-03-08T19:05:55.840Z,97016.00
2023-03-08T19:08:22.372Z,97008.00
2023-03-08T19:10:48.817Z,96996.60
2023-03-08T19:13:15.230Z,96989.20
2023-03-08T19:15:41.710Z,96982.20
2023-03-08T19:18:08.098Z,96982.60
2023-03-08T19:20:42.196Z,96978.00
2023-03-08T19:23:09.775Z,96974.00
2023-03-08T19:25:57.106Z,96969.40
2023-03-08T19:28:23.576Z,96967.00
2023-03-08T19:30:50.021Z,96961.20
2023-03-08T19:33:29.753Z,96961.60
2023-03-08T19:35:57.167Z,96956.20
2023-03-08T19:38:23.890Z,96952.80
2023-03-08T19:40:50.389Z,96955.40
2023-03-08T19:43:16.865Z,96948.20
2023-03-08T19:45:49.588Z,96946.80
2023-03-08T19:48:16.156Z,96943.60
2023-03-08T19:50:46.329Z,96947.60
2023-03-08T19:53:12.718Z,96945.00
2023-03-08T19:55:51.965Z,96943.40
2023-03-08T19:58:20.540Z,96942.60
2023-03-08T20:00:48.212Z,96943.60
2023-03-08T20:03:17.119Z,96945.00
2023-03-08T20:05:47.115Z,96936.80
2023-03-08T20:08:14.500Z,96937.00
2023-03-08T20:10:41.147Z,96938.20
2023-03-08T20:13:07.566Z,96936.40
2023-03-08T20:15:34.034Z,96929.40
2023-03-08T20:18:00.486Z,96927.00
2023-03-08T20:20:27.040Z,96918.60
2023-03-08T20:22:53.522Z,96920.20
2023-03-08T20:25:19.961Z,96917.80
2023-03-08T20:27:46.405Z,96917.60
2023-03-08T20:30:13.510Z,96908.40
2023-03-08T20:32:40.081Z,96907.00
2023-03-08T20:35:08.012Z,96904.60
2023-03-08T20:37:34.532Z,96901.00
2023-03-08T20:40:04.286Z,96893.00
2023-03-08T20:42:31.372Z,96895.60
2023-03-08T20:44:57.763Z,96896.60
2023-03-08T20:47:24.263Z,96895.40
2023-03-08T20:49:50.674Z,96891.00
2023-03-08T20:52:17.117Z,96885.20
2023-03-08T20:54:43.689Z,96882.20
2023-03-08T20:57:10.319Z,96881.00
2023-03-08T20:59:36.815Z,96882.20
2023-03-08T21:02:03.690Z,96875.80
2023-03-08T21:04:30.732Z,96871.20
2023-03-08T21:06:57.583Z,96873.40
2023-03-08T21:09:23.987Z,96872.80
2023-03-08T21:11:50.606Z,96870.00
2023-03-08T21:14:17.150Z,96866.40
2023-03-08T21:16:43.919Z,96862.80
2023-03-08T21:19:10.433Z,96865.60
2023-03-08T21:21:41.024Z,96859.60
2023-03-08T21:24:12.630Z,96857.00
2023-03-08T21:26:39.371Z,96863.00
2023-03-08T21:29:10.621Z,96864.00
2023-03-08T21:31:42.988Z,96863.20
2023-03-08T21:34:12.181Z,96856.60
2023-03-08T21:36:39.411Z,96854.60
2023-03-08T21:39:08.048Z,96855.80
2023-03-08T21:41:39.304Z,96852.40
2023-03-08T21:44:11.424Z,96853.80
2023-03-08T21:46:40.701Z,96853.40
2023-03-08T21:49:10.899Z,96854.00
2023-03-08T21:51:38.373Z,96848.00
2023-03-08T21:54:06.112Z,96847.60
2023-03-08T21:56:35.369Z,96848.40
2023-03-08T21:59:02.675Z,96839.60
2023-03-08T22:01:31.429Z,96835.00
2023-03-08T22:04:00.056Z,96836.00
2023-03-08T22:06:27.256Z,96829.00
2023-03-08T22:08:54.251Z,96830.60
2023-03-08T22:11:22.733Z,96830.40
2023-03-08T22:13:57.172Z,96826.00
2023-03-08T22:16:25.537Z,96831.20
2023-03-08T22:19:11.434Z,96826.80
2023-03-08T22:21:38.149Z,96825.20
2023-03-08T22:24:05.306Z,96828.60
2023-03-08T22:26:32.215Z,96823.40
2023-03-08T22:28:59.262Z,96819.80
2023-03-08T22:31:28.925Z,96816.20
2023-03-08T22:33:55.702Z,96816.60
2023-03-08T22:36:22.659Z,96812.00
2023-03-08T22:38:49.275Z,96815.80
2023-03-08T22:41:22.804Z,96815.60
2023-03-08T22:43:50.705Z,96814.20
2023-03-08T22:46:25.406Z,96812.80
2023-03-08T22:48:53.109Z,96809.00
2023-03-08T22:51:22.258Z,96803.60
2023-03-08T22:53:49.067Z,96801.20
2023-03-08T22:56:26.504Z,96799.00
2023-03-08T22:58:52.940Z,96787.80
2023-03-08T23:01:23.601Z,96790.40
2023-03-08T23:03:55.207Z,96797.40
2023-03-08T23:06:21.883Z,96801.80
2023-03-08T23:08:48.394Z,96802.80
2023-03-08T23:11:15.504Z,96803.40
2023-03-08T23:13:42.163Z,96803.40
2023-03-08T23:16:13.690Z,96804.20
2023-03-08T23:18:41.316Z,96807.20
2023-03-08T23:21:12.901Z,96806.80
2023-03-08T23:23:39.901Z,96803.60
2023-03-08T23:26:09.906Z,96816.20
2023-03-08T23:28:36.721Z,96809.60
2023-03-08T23:31:10.424Z,96809.20
2023-03-08T23:33:37.243Z,96811.80
2023-03-08T23:36:04.313Z,96810.80
2023-03-08T23:38:30.981Z,96817.40
2023-03-08T23:40:57.744Z,96817.00
2023-03-08T23:43:25.197Z,96815.40
2023-03-08T23:45:51.760Z,96807.40
2023-03-08T23:48:18.153Z,96806.20
2023-03-08T23:50:44.533Z,96809.40
2023-03-08T23:53:11.120Z,96810.60
2023-03-08T23:55:40.594Z,96807.80
2023-03-08T23:58:08.153Z,96810.80
